Time;durP1;ratioP1;P1;durP2;ratioP2;P2;SDS_P1;SDS_P2;PMS_P1;PMS_P2;Temp;Humidity;BMP_temperature;BMP_pressure;BME280_temperature;BME280_humidity;BME280_pressure;Samples;Min_cycle;Max_cycle;Signal;HPM_P1;HPM_P2
2023/05/07 00:00:15;;;;;;;26.92;18.05;;;11.80;99.90;;;;;;5088936;28;20044;-87
2023/05/07 00:02:41;;;;;;;26.65;17.17;;;11.80;99.90;;;;;;5073298;28;20977;-87
2023/05/07 00:05:07;;;;;;;25.08;17.63;;;11.70;99.90;;;;;;5106112;28;20043;-87
2023/05/07 00:07:33;;;;;;;23.38;16.63;;;11.70;99.90;;;;;;5088846;28;20484;-87
2023/05/07 00:09:58;;;;;;;22.92;15.93;;;11.70;99.90;;;;;;5088761;28;20047;-87
2023/05/07 00:12:25;;;;;;;23.85;16.98;;;11.60;99.90;;;;;;5105635;28;20083;-87
2023/05/07 00:14:50;;;;;;;25.77;16.80;;;11.60;99.90;;;;;;5123221;27;20056;-87
2023/05/07 00:17:16;;;;;;;25.00;16.90;;;12.00;99.90;;;;;;5105243;28;20035;-86
2023/05/07 00:19:42;;;;;;;23.67;17.33;;;11.60;99.90;;;;;;5088897;28;20068;-87
2023/05/07 00:22:08;;;;;;;26.45;18.80;;;11.50;99.90;;;;;;5071245;28;20039;-86
2023/05/07 00:24:34;;;;;;;25.08;17.77;;;11.50;99.90;;;;;;5105603;28;20091;-87
2023/05/07 00:27:00;;;;;;;22.75;16.40;;;11.50;99.90;;;;;;5105442;28;20071;-87
2023/05/07 00:29:25;;;;;;;23.75;17.13;;;12.10;99.90;;;;;;5088842;28;20134;-87
2023/05/07 00:31:51;;;;;;;30.65;18.23;;;11.50;99.90;;;;;;5072100;28;20100;-88
2023/05/07 00:34:17;;;;;;;28.48;18.17;;;11.50;99.90;;;;;;5088237;28;20060;-88
2023/05/07 00:36:43;;;;;;;28.52;17.85;;;11.40;99.90;;;;;;5088791;28;20047;-87
2023/05/07 00:39:09;;;;;;;27.55;18.05;;;11.60;99.90;;;;;;5071498;28;20043;-87
2023/05/07 00:41:34;;;;;;;29.50;19.85;;;11.50;99.90;;;;;;5088464;28;20488;-87
2023/05/07 00:44:02;;;;;;;27.70;18.70;;;11.40;99.90;;;;;;5071365;28;20036;-87
2023/05/07 00:46:28;;;;;;;30.63;18.25;;;11.40;99.90;;;;;;5072132;28;20043;-86
2023/05/07 00:48:54;;;;;;;27.40;18.88;;;11.40;99.90;;;;;;5088133;28;20461;-86
2023/05/07 00:51:20;;;;;;;31.05;18.15;;;11.40;99.90;;;;;;5104705;28;20082;-87
2023/05/07 00:53:46;;;;;;;27.55;18.63;;;11.50;99.90;;;;;;5106100;28;20075;-86
2023/05/07 00:56:12;;;;;;;26.10;19.08;;;11.40;99.90;;;;;;5071632;28;20104;-87
2023/05/07 00:58:38;;;;;;;26.33;19.63;;;11.40;99.90;;;;;;5088078;28;20548;-86
2023/05/07 01:01:04;;;;;;;26.13;19.45;;;11.40;99.90;;;;;;5071551;28;20227;-86
2023/05/07 01:03:29;;;;;;;27.92;20.15;;;11.40;99.90;;;;;;5071692;28;20036;-87
2023/05/07 01:05:58;;;;;;;28.77;20.60;;;11.40;99.90;;;;;;5071637;28;20040;-87
2023/05/07 01:08:26;;;;;;;29.75;20.02;;;11.40;99.90;;;;;;5121948;27;20040;-87
2023/05/07 01:10:53;;;;;;;35.70;21.83;;;11.40;99.90;;;;;;5071677;28;20040;-87
2023/05/07 01:13:20;;;;;;;30.40;21.67;;;11.40;99.90;;;;;;5087426;28;20541;-87
2023/05/07 01:15:45;;;;;;;31.38;21.98;;;11.40;99.90;;;;;;5088064;28;20546;-86
2023/05/07 01:18:11;;;;;;;35.75;22.13;;;11.40;99.90;;;;;;5104707;28;20048;-86
2023/05/07 01:20:37;;;;;;;33.75;22.02;;;11.40;99.90;;;;;;5088204;28;20513;-86
2023/05/07 01:23:03;;;;;;;30.02;22.58;;;11.40;99.90;;;;;;5087740;28;20054;-86
2023/05/07 01:25:30;;;;;;;29.92;23.10;;;11.40;99.90;;;;;;5104361;28;20077;-86
2023/05/07 01:27:56;;;;;;;35.38;22.35;;;11.40;99.90;;;;;;5104996;28;20415;-87
2023/05/07 01:30:22;;;;;;;34.05;22.50;;;11.40;99.90;;;;;;5086901;28;20122;-87
2023/05/07 01:32:56;;;;;;;34.95;21.45;;;11.40;99.90;;;;;;5087454;28;20113;-87
2023/05/07 01:35:24;;;;;;;33.40;23.63;;;11.40;99.90;;;;;;5104812;28;20419;-87
2023/05/07 01:37:50;;;;;;;31.08;22.35;;;11.40;99.90;;;;;;5087619;28;20105;-86
2023/05/07 01:40:17;;;;;;;33.95;23.08;;;11.40;99.90;;;;;;5087798;28;20086;-87
2023/05/07 01:42:46;;;;;;;32.22;23.35;;;11.60;99.90;;;;;;5087588;28;20500;-86
2023/05/07 01:45:12;;;;;;;32.33;22.60;;;11.40;99.90;;;;;;5088070;28;20051;-86
2023/05/07 01:47:38;;;;;;;33.00;22.15;;;11.50;99.90;;;;;;5104302;28;20040;-86
2023/05/07 01:50:08;;;;;;;34.70;22.17;;;11.30;99.90;;;;;;5070278;28;20090;-86
2023/05/07 01:52:34;;;;;;;33.17;22.73;;;11.40;99.90;;;;;;5121346;27;20040;-87
2023/05/07 01:55:00;;;;;;;26.63;22.20;;;11.30;99.90;;;;;;5087074;28;20055;-86
2023/05/07 01:57:26;;;;;;;33.15;22.00;;;11.30;99.90;;;;;;5104465;28;20047;-87
2023/05/07 01:59:51;;;;;;;30.63;22.63;;;11.30;99.90;;;;;;5069562;28;20186;-87
2023/05/07 02:02:17;;;;;;;35.13;23.15;;;11.30;99.90;;;;;;5104549;28;20044;-87
2023/05/07 02:04:43;;;;;;;33.83;22.42;;;11.30;99.90;;;;;;5070226;28;20051;-86
2023/05/07 02:07:08;;;;;;;32.42;22.95;;;11.30;99.90;;;;;;5087238;28;20846;-87
2023/05/07 02:09:34;;;;;;;33.70;22.20;;;11.60;99.90;;;;;;5086787;28;20035;-87
2023/05/07 02:12:00;;;;;;;29.90;21.40;;;11.30;99.90;;;;;;5087164;28;20045;-88
2023/05/07 02:14:26;;;;;;;32.97;22.88;;;11.30;99.90;;;;;;5087317;28;20043;-87
2023/05/07 02:16:51;;;;;;;33.28;23.67;;;11.30;99.90;;;;;;5086705;28;20124;-87
2023/05/07 02:19:18;;;;;;;37.00;23.80;;;11.30;99.90;;;;;;5087467;28;20058;-87
2023/05/07 02:21:43;;;;;;;35.03;23.08;;;11.30;99.90;;;;;;5086945;28;20511;-87
2023/05/07 02:24:09;;;;;;;32.78;22.50;;;11.20;99.90;;;;;;5086673;28;20478;-87
2023/05/07 02:26:35;;;;;;;34.83;24.15;;;11.20;99.90;;;;;;5086860;28;20079;-88
2023/05/07 02:29:00;;;;;;;33.40;24.23;;;11.30;99.90;;;;;;5104378;28;20036;-87
2023/05/07 02:31:26;;;;;;;34.08;23.95;;;11.30;99.90;;;;;;5070057;28;20130;-88
2023/05/07 02:33:52;;;;;;;42.60;26.98;;;11.30;99.90;;;;;;5069703;28;20031;-88
2023/05/07 02:36:17;;;;;;;36.53;26.40;;;11.30;99.90;;;;;;5070341;28;20111;-87
2023/05/07 02:38:43;;;;;;;39.60;29.08;;;11.20;99.90;;;;;;5086065;28;20046;-88
2023/05/07 02:41:09;;;;;;;38.45;27.33;;;11.20;99.90;;;;;;5087619;28;20074;-88
2023/05/07 02:43:34;;;;;;;45.10;28.90;;;11.20;99.90;;;;;;5086469;28;20126;-88
2023/05/07 02:46:07;;;;;;;44.35;28.55;;;11.20;99.90;;;;;;5086689;28;20040;-88
2023/05/07 02:48:34;;;;;;;38.33;27.58;;;11.30;99.90;;;;;;5121362;28;20400;-88
2023/05/07 02:51:01;;;;;;;37.45;26.52;;;11.30;99.90;;;;;;5086597;28;20039;-88
2023/05/07 02:53:27;;;;;;;35.88;24.77;;;11.20;99.90;;;;;;5121225;28;20164;-88
2023/05/07 02:55:53;;;;;;;38.35;24.73;;;11.30;99.90;;;;;;5086373;28;20404;-88
2023/05/07 02:58:19;;;;;;;38.33;25.00;;;11.20;99.90;;;;;;5087283;28;20043;-88
2023/05/07 03:00:45;;;;;;;36.95;23.95;;;11.20;99.90;;;;;;5069519;28;20044;-88
2023/05/07 03:03:10;;;;;;;37.70;23.83;;;11.20;99.90;;;;;;5086433;28;20046;-88
2023/05/07 03:05:36;;;;;;;37.63;24.80;;;11.20;99.90;;;;;;5069647;28;20054;-87
2023/05/07 03:08:03;;;;;;;33.72;22.35;;;11.50;99.90;;;;;;5087305;28;20171;-88
2023/05/07 03:10:29;;;;;;;31.50;21.90;;;11.20;99.90;;;;;;5103556;28;20111;-88
2023/05/07 03:12:55;;;;;;;30.13;22.60;;;11.20;99.90;;;;;;5105286;28;20090;-87
2023/05/07 03:15:21;;;;;;;38.75;24.23;;;11.10;99.90;;;;;;5091089;28;20071;-88
2023/05/07 03:17:47;;;;;;;39.42;25.75;;;11.10;99.90;;;;;;5090155;28;20377;-88
2023/05/07 03:20:13;;;;;;;37.40;24.83;;;11.10;99.90;;;;;;5073837;28;20047;-88
2023/05/07 03:22:39;;;;;;;37.45;24.40;;;11.10;99.90;;;;;;5073570;28;20046;-87
2023/05/07 03:25:06;;;;;;;33.85;24.33;;;11.10;99.90;;;;;;5124271;27;20052;-88
2023/05/07 03:27:32;;;;;;;38.72;24.42;;;11.10;99.90;;;;;;5073563;28;20047;-88
2023/05/07 03:29:57;;;;;;;33.00;23.55;;;11.00;99.90;;;;;;5072831;28;20040;-88
2023/05/07 03:32:23;;;;;;;38.47;23.55;;;11.00;99.90;;;;;;5090400;28;20112;-88
2023/05/07 03:34:49;;;;;;;32.40;24.05;;;11.00;99.90;;;;;;5089692;28;20130;-88
2023/05/07 03:37:15;;;;;;;33.80;21.98;;;11.00;99.90;;;;;;5090135;28;20039;-88
2023/05/07 03:39:40;;;;;;;35.20;23.42;;;11.00;99.90;;;;;;5073238;28;20068;-87
2023/05/07 03:42:06;;;;;;;33.17;22.88;;;11.00;99.90;;;;;;5090545;28;20063;-88
2023/05/07 03:44:32;;;;;;;34.58;22.92;;;11.00;99.90;;;;;;5073281;28;20480;-88
2023/05/07 03:46:57;;;;;;;41.22;24.55;;;10.90;99.90;;;;;;5074022;28;20055;-88
2023/05/07 03:49:23;;;;;;;35.72;24.35;;;10.90;99.90;;;;;;5073808;28;20044;-88
2023/05/07 03:51:49;;;;;;;35.33;23.80;;;10.90;99.90;;;;;;5090199;28;20050;-88
2023/05/07 03:54:15;;;;;;;31.27;22.52;;;10.90;99.90;;;;;;5090763;28;20081;-88
2023/05/07 03:56:40;;;;;;;34.35;23.83;;;10.90;99.90;;;;;;5090823;28;20116;-88
2023/05/07 03:59:06;;;;;;;35.83;24.65;;;11.10;99.90;;;;;;5107815;28;20044;-89
2023/05/07 04:01:32;;;;;;;38.80;26.17;;;10.90;99.90;;;;;;5074085;28;20046;-88
2023/05/07 04:03:57;;;;;;;37.85;25.10;;;10.80;99.90;;;;;;5091457;28;20043;-88
2023/05/07 04:06:24;;;;;;;36.65;25.85;;;10.80;99.90;;;;;;5090684;28;20047;-88
2023/05/07 04:08:50;;;;;;;39.92;25.30;;;10.80;99.90;;;;;;5089973;28;20043;-88
2023/05/07 04:11:15;;;;;;;36.25;26.65;;;10.80;99.90;;;;;;5090467;28;20058;-88
2023/05/07 04:13:41;;;;;;;34.70;25.25;;;10.80;99.90;;;;;;5089419;28;20281;-87
2023/05/07 04:16:07;;;;;;;38.78;25.77;;;10.80;99.90;;;;;;5107590;28;20100;-88
2023/05/07 04:18:33;;;;;;;41.05;26.40;;;10.80;99.90;;;;;;5073259;28;20040;-88
2023/05/07 04:20:59;;;;;;;36.78;25.83;;;10.80;99.90;;;;;;5107439;28;20107;-88
2023/05/07 04:23:24;;;;;;;34.55;24.25;;;11.40;99.90;;;;;;5088107;28;20435;-87
2023/05/07 04:25:50;;;;;;;39.63;25.25;;;10.70;99.90;;;;;;5089430;28;20047;-89
2023/05/07 04:28:16;;;;;;;33.00;22.48;;;10.70;99.90;;;;;;5089580;28;20135;-89
2023/05/07 04:30:42;;;;;;;36.53;23.65;;;10.70;99.90;;;;;;5072028;28;20134;-88
2023/05/07 04:33:08;;;;;;;33.55;23.50;;;10.70;99.90;;;;;;5090034;28;20043;-89
2023/05/07 04:35:34;;;;;;;37.80;23.80;;;10.80;99.90;;;;;;5071760;28;20040;-89
2023/05/07 04:38:00;;;;;;;35.22;23.00;;;10.70;99.90;;;;;;5123324;27;20130;-88
2023/05/07 04:40:26;;;;;;;33.00;22.83;;;10.70;99.90;;;;;;5072025;28;20142;-88
2023/05/07 04:42:52;;;;;;;35.00;23.02;;;10.70;99.90;;;;;;5088467;28;20409;-87
2023/05/07 04:45:19;;;;;;;35.80;22.92;;;10.70;99.90;;;;;;5089165;28;20043;-88
2023/05/07 04:47:44;;;;;;;36.50;23.88;;;10.70;99.90;;;;;;5088567;28;20052;-88
2023/05/07 04:50:10;;;;;;;31.75;21.67;;;10.70;99.90;;;;;;5088861;28;20514;-88
2023/05/07 04:52:36;;;;;;;32.88;22.05;;;10.70;99.90;;;;;;5087967;28;20119;-88
2023/05/07 04:55:02;;;;;;;31.65;22.60;;;10.70;99.90;;;;;;5072310;28;20571;-88
2023/05/07 04:57:28;;;;;;;33.38;21.50;;;10.70;99.90;;;;;;5088042;28;20066;-87
2023/05/07 04:59:54;;;;;;;32.17;21.95;;;10.70;99.90;;;;;;5088461;28;20491;-88
2023/05/07 05:02:19;;;;;;;26.25;19.58;;;10.70;99.90;;;;;;5071128;28;20484;-87
2023/05/07 05:04:45;;;;;;;35.47;20.90;;;10.70;99.90;;;;;;5087460;28;20046;-86
2023/05/07 05:07:11;;;;;;;30.25;20.88;;;11.00;99.90;;;;;;5105909;28;20046;-87
2023/05/07 05:09:37;;;;;;;28.58;20.63;;;10.70;99.90;;;;;;5087332;28;20497;-87
2023/05/07 05:12:03;;;;;;;32.08;21.52;;;10.70;99.90;;;;;;5088279;28;20071;-89
2023/05/07 05:14:29;;;;;;;30.67;19.63;;;10.70;99.90;;;;;;5088235;28;20039;-88
2023/05/07 05:16:55;;;;;;;27.73;20.08;;;10.70;99.90;;;;;;5088171;28;20054;-88
2023/05/07 05:19:20;;;;;;;29.20;19.42;;;11.30;99.90;;;;;;5105313;28;20463;-88
2023/05/07 05:21:46;;;;;;;30.80;20.25;;;10.70;99.90;;;;;;5088112;28;20096;-88
2023/05/07 05:24:12;;;;;;;27.50;20.48;;;10.80;99.90;;;;;;5088539;28;20047;-90
2023/05/07 05:26:38;;;;;;;27.58;19.70;;;10.70;99.90;;;;;;5088092;28;20053;-88
2023/05/07 05:29:03;;;;;;;25.50;19.42;;;10.70;99.90;;;;;;5089612;28;20035;-89
2023/05/07 05:31:29;;;;;;;26.95;20.15;;;10.70;99.90;;;;;;5088805;28;20048;-89
2023/05/07 05:33:55;;;;;;;26.92;20.27;;;10.70;99.90;;;;;;5089626;28;20075;-90
2023/05/07 05:36:21;;;;;;;27.15;19.00;;;10.80;99.90;;;;;;5106240;28;20087;-89
2023/05/07 05:38:46;;;;;;;24.75;19.08;;;10.80;99.90;;;;;;5072050;28;20073;-90
2023/05/07 05:41:12;;;;;;;31.13;20.60;;;11.00;99.90;;;;;;5094062;28;20085;-89
2023/05/07 05:43:37;;;;;;;31.15;20.38;;;10.80;99.90;;;;;;5096074;28;20050;-91
2023/05/07 05:46:04;;;;;;;27.90;20.00;;;10.70;99.90;;;;;;5083174;28;20061;-91
2023/05/07 05:48:30;;;;;;;24.67;17.75;;;10.70;99.90;;;;;;5115417;28;20422;-92
2023/05/07 05:50:55;;;;;;;26.83;18.20;;;10.80;99.90;;;;;;5100137;28;20099;-92
2023/05/07 05:53:21;;;;;;;25.48;18.50;;;11.10;99.90;;;;;;5101054;28;20144;-91
2023/05/07 05:55:47;;;;;;;24.80;17.83;;;10.80;99.90;;;;;;5101752;28;20044;-89
2023/05/07 05:58:13;;;;;;;25.67;18.55;;;10.70;99.90;;;;;;5102281;28;20040;-91
2023/05/07 06:00:38;;;;;;;27.13;19.30;;;10.70;99.90;;;;;;5102693;28;20036;-90
2023/05/07 06:03:04;;;;;;;27.88;18.90;;;10.80;99.90;;;;;;5103586;28;20039;-90
2023/05/07 06:05:30;;;;;;;26.13;19.60;;;10.80;99.90;;;;;;5086387;28;20079;-89
2023/05/07 06:07:56;;;;;;;28.58;19.90;;;10.80;99.90;;;;;;5088848;28;20074;-90
2023/05/07 06:10:21;;;;;;;28.60;20.88;;;10.80;99.90;;;;;;5088125;28;20044;-89
2023/05/07 06:12:47;;;;;;;26.38;18.88;;;10.80;99.90;;;;;;5103640;28;20145;-88
2023/05/07 06:15:13;;;;;;;29.55;19.65;;;10.80;99.90;;;;;;5119757;28;20040;-91
2023/05/07 06:17:39;;;;;;;26.88;19.63;;;11.20;99.90;;;;;;5083147;28;20110;-88
2023/05/07 06:20:05;;;;;;;24.15;19.45;;;10.80;99.90;;;;;;5101122;28;20054;-89
2023/05/07 06:22:31;;;;;;;25.67;19.98;;;10.90;99.90;;;;;;5099387;28;20040;-88
2023/05/07 06:24:56;;;;;;;30.02;22.48;;;10.90;99.90;;;;;;5115851;28;20058;-90
2023/05/07 06:27:23;;;;;;;30.27;23.88;;;11.00;99.90;;;;;;5065759;28;20039;-89
2023/05/07 06:29:49;;;;;;;37.22;26.70;;;11.00;99.90;;;;;;5098456;28;20048;-89
2023/05/07 06:32:16;;;;;;;39.78;26.83;;;11.00;99.90;;;;;;5099139;28;20055;-89
2023/05/07 06:34:42;;;;;;;37.63;26.65;;;11.10;99.90;;;;;;5080601;28;20078;-89
2023/05/07 06:37:08;;;;;;;34.28;25.80;;;11.10;99.90;;;;;;5099127;28;20139;-89
2023/05/07 06:39:34;;;;;;;32.70;26.15;;;11.10;99.90;;;;;;5098031;28;20040;-87
2023/05/07 06:42:01;;;;;;;31.23;25.38;;;11.10;99.90;;;;;;5098432;28;20126;-88
2023/05/07 06:44:27;;;;;;;30.73;23.90;;;11.10;99.90;;;;;;5089627;28;20046;-85
2023/05/07 06:46:53;;;;;;;32.17;24.35;;;11.10;99.90;;;;;;5105285;28;20099;-87
2023/05/07 06:49:18;;;;;;;32.05;23.02;;;11.10;99.90;;;;;;5088406;28;20047;-88
2023/05/07 06:51:44;;;;;;;34.40;22.63;;;11.10;99.90;;;;;;5070067;28;20083;-88
2023/05/07 06:54:10;;;;;;;30.77;21.33;;;11.20;99.90;;;;;;5070841;28;20035;-87
2023/05/07 06:56:36;;;;;;;29.80;20.30;;;11.20;99.90;;;;;;5086736;28;20040;-88
2023/05/07 06:59:03;;;;;;;26.58;19.95;;;11.20;99.90;;;;;;5070638;28;20039;-87
2023/05/07 07:01:29;;;;;;;20.77;16.95;;;11.20;99.90;;;;;;5120532;28;20054;-87
2023/05/07 07:03:55;;;;;;;23.48;16.92;;;11.20;99.90;;;;;;5104310;28;20043;-88
2023/05/07 07:06:21;;;;;;;24.70;17.67;;;11.20;99.90;;;;;;5069776;28;20456;-87
2023/05/07 07:08:46;;;;;;;23.10;17.88;;;11.80;99.90;;;;;;5120879;28;20036;-89
2023/05/07 07:11:12;;;;;;;23.00;16.63;;;11.30;99.90;;;;;;5086562;28;20044;-89
2023/05/07 07:13:38;;;;;;;19.63;15.82;;;11.30;99.90;;;;;;5086257;28;20043;-88
2023/05/07 07:16:04;;;;;;;22.50;15.73;;;11.20;99.90;;;;;;5087503;28;20297;-88
2023/05/07 07:18:29;;;;;;;24.80;16.55;;;11.20;99.90;;;;;;5086335;28;20136;-89
2023/05/07 07:20:55;;;;;;;28.08;17.65;;;11.20;99.90;;;;;;5070167;28;20419;-88
2023/05/07 07:23:21;;;;;;;26.40;17.95;;;11.20;99.90;;;;;;5069552;28;20052;-88
2023/05/07 07:25:47;;;;;;;21.27;16.25;;;11.20;99.90;;;;;;5069409;28;20071;-88
2023/05/07 07:28:12;;;;;;;20.48;15.27;;;11.20;99.90;;;;;;5069661;28;20035;-87
2023/05/07 07:30:39;;;;;;;24.05;16.65;;;11.20;99.90;;;;;;5069562;28;20036;-85
2023/05/07 07:33:05;;;;;;;27.42;17.83;;;11.20;99.90;;;;;;5070205;28;20040;-86
2023/05/07 07:35:31;;;;;;;27.00;18.08;;;11.10;99.90;;;;;;5085518;28;20446;-87
2023/05/07 07:37:57;;;;;;;29.60;18.67;;;11.10;99.90;;;;;;5070652;28;20047;-87
2023/05/07 07:40:24;;;;;;;21.17;16.05;;;11.10;99.90;;;;;;5120128;28;20039;-86
2023/05/07 07:42:51;;;;;;;26.98;16.58;;;11.10;99.90;;;;;;5103028;28;20047;-86
2023/05/07 07:45:16;;;;;;;24.27;17.40;;;11.10;99.90;;;;;;5086715;28;20043;-86
2023/05/07 07:47:42;;;;;;;25.10;17.40;;;11.10;99.90;;;;;;5069681;28;20036;-88
2023/05/07 07:50:08;;;;;;;23.85;17.67;;;11.10;99.90;;;;;;5103667;28;20051;-89
2023/05/07 07:52:34;;;;;;;25.10;17.88;;;11.20;99.90;;;;;;5068891;28;20054;-88
2023/05/07 07:55:00;;;;;;;25.17;17.42;;;11.20;99.90;;;;;;5087153;28;20044;-88
2023/05/07 07:57:26;;;;;;;24.73;17.00;;;11.20;99.90;;;;;;5103772;28;20092;-88
2023/05/07 07:59:52;;;;;;;27.30;18.80;;;11.20;99.90;;;;;;5090271;28;20123;-88
2023/05/07 08:02:17;;;;;;;24.65;17.58;;;11.30;99.90;;;;;;5072518;28;20498;-88
2023/05/07 08:04:43;;;;;;;23.00;16.33;;;11.30;99.90;;;;;;5089449;28;20036;-87
2023/05/07 08:07:10;;;;;;;27.02;18.00;;;11.50;99.90;;;;;;5106982;28;20035;-89
2023/05/07 08:09:39;;;;;;;28.75;18.35;;;11.40;99.90;;;;;;5089538;28;20051;-91
2023/05/07 08:12:05;;;;;;;23.45;16.48;;;11.50;99.90;;;;;;5089984;28;20048;-89
2023/05/07 08:14:31;;;;;;;24.10;16.98;;;11.50;99.90;;;;;;5089110;28;20047;-88
2023/05/07 08:16:57;;;;;;;23.52;17.58;;;11.60;99.90;;;;;;5089888;28;20400;-95
2023/05/07 08:19:23;;;;;;;25.40;17.77;;;11.70;99.90;;;;;;5089218;28;20091;-88
2023/05/07 08:21:49;;;;;;;25.88;18.20;;;11.70;99.90;;;;;;5072756;28;20039;-89
2023/05/07 08:24:15;;;;;;;22.83;16.85;;;11.80;99.90;;;;;;5088936;28;20079;-87
2023/05/07 08:26:44;;;;;;;26.85;16.75;;;11.90;99.90;;;;;;5105489;28;20108;-84
2023/05/07 08:29:10;;;;;;;25.17;17.27;;;12.00;99.90;;;;;;5089504;28;20040;-86
2023/05/07 08:31:38;;;;;;;22.75;17.95;;;12.00;99.90;;;;;;5071733;28;20051;-86
2023/05/07 08:34:04;;;;;;;25.88;16.90;;;12.00;99.90;;;;;;5088570;28;20085;-85
2023/05/07 08:36:30;;;;;;;23.23;17.63;;;12.00;99.90;;;;;;5071391;28;20052;-85
2023/05/07 08:38:56;;;;;;;23.90;16.90;;;12.10;99.90;;;;;;5088467;28;20066;-85
2023/05/07 08:41:21;;;;;;;28.55;19.08;;;12.10;99.90;;;;;;5089079;28;20058;-84
2023/05/07 08:43:50;;;;;;;23.15;17.67;;;12.20;99.90;;;;;;5088296;28;20044;-85
2023/05/07 08:46:20;;;;;;;26.90;18.67;;;12.30;99.90;;;;;;5072306;28;20130;-83
2023/05/07 08:48:50;;;;;;;23.35;17.27;;;12.60;99.90;;;;;;5071552;28;20044;-84
2023/05/07 08:51:20;;;;;;;21.67;16.48;;;12.70;99.90;;;;;;5088865;28;20086;-84
2023/05/07 08:53:48;;;;;;;22.52;17.40;;;12.90;99.90;;;;;;5087960;28;20404;-87
2023/05/07 08:56:18;;;;;;;26.10;17.77;;;13.00;99.90;;;;;;5087921;28;20043;-87
2023/05/07 08:58:44;;;;;;;21.75;16.20;;;13.10;99.90;;;;;;5072660;28;20047;-86
2023/05/07 09:01:13;;;;;;;19.13;15.15;;;13.20;99.90;;;;;;5104434;28;20083;-87
2023/05/07 09:03:40;;;;;;;21.50;16.75;;;13.20;99.90;;;;;;5072310;28;20049;-86
2023/05/07 09:06:06;;;;;;;30.85;17.23;;;13.30;99.90;;;;;;5071255;28;20317;-86
2023/05/07 09:08:36;;;;;;;25.77;18.08;;;13.40;99.90;;;;;;5088545;28;20489;-85
2023/05/07 09:11:02;;;;;;;23.75;17.05;;;13.50;99.90;;;;;;5087297;28;20044;-85
2023/05/07 09:13:28;;;;;;;21.17;17.10;;;13.60;99.90;;;;;;5087236;28;20040;-83
2023/05/07 09:15:54;;;;;;;24.08;18.05;;;13.70;99.90;;;;;;5089011;28;20146;-85
2023/05/07 09:18:20;;;;;;;23.30;17.08;;;13.70;99.90;;;;;;5121202;27;20043;-84
2023/05/07 09:20:46;;;;;;;24.75;16.83;;;13.70;99.90;;;;;;5105565;28;20126;-87
2023/05/07 09:23:12;;;;;;;22.48;16.98;;;13.80;99.90;;;;;;5104473;28;20075;-86
2023/05/07 09:25:38;;;;;;;24.23;16.70;;;13.80;99.90;;;;;;5071082;28;20196;-87
2023/05/07 09:28:07;;;;;;;25.80;16.33;;;13.80;99.90;;;;;;5070855;28;20040;-86
2023/05/07 09:30:33;;;;;;;24.83;16.73;;;13.90;99.90;;;;;;5087343;28;20042;-88
2023/05/07 09:33:01;;;;;;;23.67;16.40;;;13.90;99.90;;;;;;5071614;28;20043;-87
2023/05/07 09:35:28;;;;;;;24.27;17.55;;;14.00;99.90;;;;;;5087138;28;20051;-87
2023/05/07 09:37:58;;;;;;;25.35;17.98;;;14.00;99.90;;;;;;5122338;27;20048;-85
2023/05/07 09:40:29;;;;;;;24.20;16.75;;;14.20;99.90;;;;;;5121568;27;20048;-85
2023/05/07 09:42:55;;;;;;;22.13;17.25;;;14.40;99.90;;;;;;5087524;28;20055;-88
2023/05/07 09:45:28;;;;;;;22.90;15.73;;;14.50;99.90;;;;;;5088060;28;20134;-89
2023/05/07 09:47:56;;;;;;;23.75;16.15;;;14.60;99.90;;;;;;5070127;28;20633;-88
2023/05/07 09:50:28;;;;;;;22.80;16.33;;;14.60;99.90;;;;;;5089009;28;20110;-87
2023/05/07 09:52:55;;;;;;;19.90;15.65;;;14.60;99.90;;;;;;5121112;27;20511;-86
2023/05/07 09:55:22;;;;;;;21.65;15.57;;;14.70;99.90;;;;;;5087258;28;20039;-87
2023/05/07 09:57:52;;;;;;;20.98;16.23;;;14.70;99.90;;;;;;5088022;28;20027;-88
2023/05/07 10:00:22;;;;;;;19.60;15.18;;;14.70;99.90;;;;;;5071399;28;20507;-88
2023/05/07 10:02:52;;;;;;;21.67;16.35;;;14.80;99.90;;;;;;5122698;27;20040;-88
2023/05/07 10:05:20;;;;;;;21.10;15.20;;;15.00;99.90;;;;;;5071122;28;20619;-88
2023/05/07 10:07:46;;;;;;;18.33;15.32;;;15.20;99.90;;;;;;5072036;28;20093;-87
2023/05/07 10:10:12;;;;;;;19.55;15.20;;;15.30;99.90;;;;;;5086866;28;20127;-88
2023/05/07 10:12:40;;;;;;;28.05;15.20;;;15.40;99.90;;;;;;5121382;27;20130;-89
2023/05/07 10:15:10;;;;;;;17.13;15.18;;;15.50;99.90;;;;;;5070466;28;20539;-88
2023/05/07 10:17:38;;;;;;;21.40;16.25;;;15.40;99.90;;;;;;5121349;27;20047;-88
2023/05/07 10:20:05;;;;;;;17.73;14.50;;;15.40;99.90;;;;;;5071654;28;20048;-88
2023/05/07 10:22:38;;;;;;;17.45;14.32;;;15.30;99.90;;;;;;5086451;28;20082;-88
2023/05/07 10:25:13;;;;;;;17.95;14.63;;;15.20;99.90;;;;;;5087357;28;20047;-89
2023/05/07 10:27:39;;;;;;;17.00;14.27;;;15.30;99.90;;;;;;5104844;28;20047;-88
2023/05/07 10:30:26;;;;;;;20.42;15.05;;;15.20;99.90;;;;;;5088416;28;20088;-86
2023/05/07 10:32:57;;;;;;;18.30;13.85;;;15.20;99.90;;;;;;5092444;28;20043;-87
2023/05/07 10:35:27;;;;;;;16.88;14.20;;;15.20;99.90;;;;;;5125014;27;20036;-86
2023/05/07 10:37:53;;;;;;;18.52;14.45;;;15.10;99.90;;;;;;5126499;27;21097;-89
2023/05/07 10:40:20;;;;;;;18.67;14.43;;;15.10;99.90;;;;;;5093580;28;20047;-92
2023/05/07 10:43:00;;;;;;;16.27;13.98;;;15.20;99.90;;;;;;5092578;28;20452;-87
2023/05/07 10:45:27;;;;;;;17.35;14.13;;;15.20;99.90;;;;;;5074543;28;20082;-87
2023/05/07 10:48:15;;;;;;;15.82;13.10;;;15.30;99.90;;;;;;5090786;28;20042;-87
2023/05/07 10:50:48;;;;;;;19.38;13.77;;;15.30;99.90;;;;;;5090875;28;20059;-86
2023/05/07 10:53:16;;;;;;;16.60;13.85;;;15.20;99.90;;;;;;5088901;28;20054;-86
2023/05/07 10:55:47;;;;;;;17.95;13.63;;;15.20;99.90;;;;;;5090031;28;20050;-87
2023/05/07 10:58:28;;;;;;;17.25;14.38;;;15.20;99.90;;;;;;5092213;28;20100;-88
2023/05/07 11:01:01;;;;;;;17.52;13.73;;;15.30;99.90;;;;;;5122477;28;20051;-86
2023/05/07 11:03:27;;;;;;;;;;;15.50;99.90;;;;;;5089282;28;20048;-85
2023/05/07 11:06:15;;;;;;;17.80;13.13;;;15.60;99.90;;;;;;5089749;28;19920;-88
2023/05/07 11:08:56;;;;;;;17.00;13.27;;;15.70;99.90;;;;;;5089362;28;20202;-84
2023/05/07 11:11:50;;;;;;;16.58;13.35;;;15.90;99.90;;;;;;5087890;28;20202;-83
2023/05/07 11:14:55;;;;;;;15.82;12.93;;;16.10;99.90;;;;;;5120698;28;20522;-81
2023/05/07 11:17:20;;;;;;;17.38;12.70;;;16.30;99.90;;;;;;5042379;28;20459;-83
2023/05/07 11:19:54;;;;;;;15.27;12.68;;;16.50;99.90;;;;;;5009653;28;20091;-81
2023/05/07 11:22:32;;;;;;;14.93;11.80;;;16.70;99.90;;;;;;5064572;28;20083;-86
2023/05/07 11:25:06;;;;;;;14.95;12.25;;;16.80;99.90;;;;;;5121557;28;20108;-86
2023/05/07 11:27:32;;;;;;;13.35;11.85;;;17.00;99.90;;;;;;5103312;28;20154;-82
2023/05/07 11:30:00;;;;;;;14.30;11.50;;;17.30;99.90;;;;;;5072094;28;20071;-87
2023/05/07 11:32:32;;;;;;;15.73;12.82;;;17.40;99.90;;;;;;5088398;28;20039;-85
2023/05/07 11:34:59;;;;;;;12.82;10.93;;;17.50;99.90;;;;;;5091207;28;20090;-84
2023/05/07 11:37:27;;;;;;;13.07;10.93;;;17.60;99.90;;;;;;5109009;28;20035;-84
2023/05/07 11:40:03;;;;;;;14.27;11.55;;;17.60;99.90;;;;;;5109928;28;20048;-89
2023/05/07 11:42:30;;;;;;;13.23;11.15;;;17.50;99.90;;;;;;5094021;28;20058;-90
2023/05/07 11:44:56;;;;;;;13.32;11.25;;;17.60;99.90;;;;;;5098101;28;20103;-83
2023/05/07 11:47:22;;;;;;;12.05;10.85;;;17.70;99.90;;;;;;5091308;28;20086;-83
2023/05/07 11:49:49;;;;;;;11.57;10.02;;;17.70;99.90;;;;;;5089604;28;20078;-82
2023/05/07 11:52:17;;;;;;;14.43;11.23;;;17.60;99.90;;;;;;5072358;28;20487;-84
2023/05/07 11:54:50;;;;;;;12.65;11.07;;;17.60;99.90;;;;;;5106878;28;20077;-84
2023/05/07 11:57:15;;;;;;;11.73;10.52;;;17.70;99.90;;;;;;5089968;28;20126;-83
2023/05/07 11:59:44;;;;;;;14.55;11.45;;;17.70;99.90;;;;;;5091281;28;20075;-83
2023/05/07 12:02:10;;;;;;;12.77;10.00;;;17.90;99.90;;;;;;5090543;28;20112;-81
2023/05/07 12:04:37;;;;;;;11.95;10.32;;;17.90;99.90;;;;;;5123860;27;20054;-81
2023/05/07 12:07:03;;;;;;;11.45;10.27;;;18.00;99.90;;;;;;5109207;28;20044;-81
2023/05/07 12:09:29;;;;;;;14.23;10.93;;;18.10;99.90;;;;;;5107890;28;20511;-80
2023/05/07 12:11:56;;;;;;;12.38;10.85;;;18.20;99.90;;;;;;5107842;28;20519;-81
2023/05/07 12:14:21;;;;;;;12.93;10.55;;;18.40;99.90;;;;;;5106861;28;20050;-81
2023/05/07 12:16:47;;;;;;;11.70;9.77;;;18.60;99.90;;;;;;5090507;28;20404;-82
2023/05/07 12:19:14;;;;;;;11.77;9.82;;;18.70;99.90;;;;;;5089871;28;20092;-81
2023/05/07 12:21:40;;;;;;;11.52;9.98;;;18.90;99.90;;;;;;5107548;28;20042;-81
2023/05/07 12:24:08;;;;;;;10.60;9.50;;;19.00;99.90;;;;;;5088757;28;20108;-80
2023/05/07 12:26:38;;;;;;;10.68;9.40;;;19.00;99.90;;;;;;5106714;28;20077;-81